Time;durP1;ratioP1;P1;durP2;ratioP2;P2;SDS_P1;SDS_P2;PMS_P1;PMS_P2;Temp;Humidity;BMP_temperature;BMP_pressure;BME280_temperature;BME280_humidity;BME280_pressure;Samples;Min_cycle;Max_cycle;Signal;HPM_P1;HPM_P2
2023/04/21 00:03:55;;;;;;;9.60;7.70;;;;;;;9.77;53.17;99817.73;436348;1250;138603;-60
2023/04/21 00:14:01;;;;;;;9.40;8.40;;;;;;;9.65;53.44;99814.52;436421;1251;138901;-61
2023/04/21 00:24:08;;;;;;;10.30;7.20;;;;;;;9.58;53.86;99815.27;436211;1250;138088;-60
2023/04/21 00:34:14;;;;;;;9.60;7.70;;;;;;;9.49;54.06;99814.92;436308;1250;139091;-60
2023/04/21 00:44:20;;;;;;;9.80;8.50;;;;;;;9.34;54.65;99817.28;435972;1254;137994;-60
2023/04/21 00:54:26;;;;;;;9.30;7.30;;;;;;;9.23;54.87;99812.14;436191;1251;139098;-59
2023/04/21 01:04:35;;;;;;;12.00;7.60;;;;;;;9.03;55.41;99810.56;436573;1250;139208;-61
2023/04/21 01:14:42;;;;;;;9.10;7.70;;;;;;;8.88;55.91;99802.33;436038;1256;139713;-60
2023/04/21 01:24:49;;;;;;;10.30;7.80;;;;;;;8.77;56.41;99801.33;436402;1250;138280;-60
2023/04/21 01:34:56;;;;;;;11.60;8.10;;;;;;;8.66;56.74;99799.77;436264;1251;138336;-60
2023/04/21 01:45:03;;;;;;;9.80;7.10;;;;;;;8.54;57.26;99798.86;436465;1253;139888;-60
2023/04/21 01:55:10;;;;;;;10.00;7.80;;;;;;;8.46;57.47;99797.14;436447;1255;138559;-63
2023/04/21 02:05:14;;;;;;;;;;;;;;;8.36;57.82;99794.30;436923;1251;140176;-60
2023/04/21 02:15:20;;;;;;;12.20;8.50;;;;;;;8.29;58.06;99790.50;436370;1255;124800;-61
2023/04/21 02:25:26;;;;;;;11.40;8.10;;;;;;;8.19;58.29;99799.55;436010;1250;138765;-60
2023/04/21 02:35:33;;;;;;;9.30;8.30;;;;;;;8.18;58.58;99797.49;436308;1256;138517;-60
2023/04/21 02:45:39;;;;;;;12.50;8.80;;;;;;;8.10;58.54;99794.92;436537;1256;139004;-61
2023/04/21 02:55:45;;;;;;;10.20;7.20;;;;;;;8.03;58.62;99797.38;436153;1255;139414;-61
2023/04/21 03:05:55;;;;;;;8.40;6.90;;;;;;;7.96;58.76;99798.57;436210;1251;139852;-60
2023/04/21 03:16:01;;;;;;;12.10;7.70;;;;;;;7.87;58.82;99795.36;436132;1251;137860;-60
2023/04/21 03:26:10;;;;;;;7.90;7.00;;;;;;;7.70;58.95;99798.81;436198;1255;139408;-60
2023/04/21 03:36:16;;;;;;;11.60;7.90;;;;;;;7.63;59.11;99800.02;436806;1251;138880;-60
2023/04/21 03:46:22;;;;;;;7.90;7.10;;;;;;;7.62;59.42;99799.73;436108;1251;138399;-60
2023/04/21 03:56:28;;;;;;;11.00;6.30;;;;;;;7.67;59.57;99800.19;437040;1256;139114;-60
2023/04/21 04:06:34;;;;;;;9.00;7.60;;;;;;;7.79;59.67;99801.88;436703;1255;137755;-60
2023/04/21 04:16:41;;;;;;;9.20;7.70;;;;;;;7.98;59.47;99807.52;436355;1256;138420;-61
2023/04/21 04:26:46;;;;;;;9.70;7.20;;;;;;;8.21;59.39;99817.91;436094;1251;138799;-59
2023/04/21 04:36:52;;;;;;;10.00;8.10;;;;;;;8.44;59.05;99818.88;436530;1256;138453;-59
2023/04/21 04:46:58;;;;;;;12.10;8.90;;;;;;;8.75;58.81;99814.31;436319;1251;139527;-61
2023/04/21 04:57:04;;;;;;;17.30;7.80;;;;;;;9.27;58.50;99820.32;436431;1251;139839;-59
2023/04/21 05:07:10;;;;;;;10.60;7.70;;;;;;;9.89;57.64;99818.59;436241;1256;138045;-61
2023/04/21 05:17:16;;;;;;;8.70;6.70;;;;;;;13.35;55.50;99811.30;435802;1257;138126;-62
2023/04/21 05:27:21;;;;;;;11.40;6.50;;;;;;;20.60;47.00;99807.80;435901;1256;139022;-61
2023/04/21 05:37:27;;;;;;;11.70;6.60;;;;;;;25.69;42.84;99807.42;436242;1256;139627;-62
2023/04/21 05:47:33;;;;;;;9.30;6.80;;;;;;;30.29;37.74;99803.16;436116;1257;138654;-61
2023/04/21 05:57:40;;;;;;;10.10;5.80;;;;;;;31.68;33.85;99803.35;436584;1256;139778;-62
2023/04/21 06:07:45;;;;;;;7.30;6.60;;;;;;;32.53;30.78;99802.32;436548;1255;140079;-61
2023/04/21 06:17:55;;;;;;;6.80;5.30;;;;;;;34.15;28.86;99799.29;436613;1257;139927;-62
2023/04/21 06:28:01;;;;;;;6.00;5.20;;;;;;;34.55;26.48;99796.23;436977;1255;138271;-61
2023/04/21 06:38:08;;;;;;;7.00;5.00;;;;;;;33.93;24.72;99798.58;436292;1256;138216;-60
2023/04/21 06:48:13;;;;;;;6.50;5.10;;;;;;;35.65;24.34;99793.70;436145;1255;138108;-61
2023/04/21 06:58:20;;;;;;;7.00;5.30;;;;;;;36.99;23.61;99797.37;436287;1255;140485;-61
2023/04/21 07:08:26;;;;;;;6.80;5.70;;;;;;;36.59;22.27;99804.58;437133;1256;139292;-61
2023/04/21 07:18:33;;;;;;;6.20;5.30;;;;;;;37.47;22.19;99799.11;436446;1255;138004;-62
2023/04/21 07:28:40;;;;;;;5.60;4.40;;;;;;;38.70;21.47;99798.84;436468;1251;139042;-61
2023/04/21 07:38:46;;;;;;;9.70;4.80;;;;;;;39.95;20.86;99797.57;436206;1255;139310;-62
2023/04/21 07:48:52;;;;;;;5.50;5.10;;;;;;;41.43;19.94;99790.44;435838;1255;139085;-61
2023/04/21 07:58:57;;;;;;;5.10;4.50;;;;;;;42.23;19.53;99790.98;435993;1256;138135;-61
2023/04/21 08:09:03;;;;;;;5.20;4.70;;;;;;;41.83;19.16;99784.85;436105;1255;138669;-61
2023/04/21 08:19:10;;;;;;;6.00;4.40;;;;;;;42.30;18.24;99785.13;436322;1255;138143;-62
2023/04/21 08:29:16;;;;;;;6.30;3.90;;;;;;;38.26;18.52;99781.48;436661;1251;138600;-61
2023/04/21 08:39:22;;;;;;;2.90;2.70;;;;;;;30.56;19.59;99787.64;436131;1256;138721;-61
2023/04/21 08:49:30;;;;;;;2.90;2.70;;;;;;;25.23;21.86;99789.02;436037;1254;138197;-61
2023/04/21 08:59:36;;;;;;;2.50;2.30;;;;;;;23.38;23.51;99793.70;436856;1256;138231;-60
2023/04/21 09:09:55;;;;;;;3.20;2.80;;;;;;;22.24;24.45;99789.11;436205;1251;138069;-61
2023/04/21 09:20:15;;;;;;;2.80;2.40;;;;;;;20.93;24.47;99791.38;436524;1255;140266;-60
2023/04/21 09:30:21;;;;;;;4.40;3.30;;;;;;;19.97;25.44;99784.26;436813;1253;139090;-60
2023/04/21 09:40:29;;;;;;;4.60;3.00;;;;;;;19.94;26.05;99775.90;436015;1251;139907;-60
2023/04/21 09:50:35;;;;;;;2.70;2.50;;;;;;;19.52;26.30;99778.23;438747;1251;139712;-61
2023/04/21 10:01:02;;;;;;;3.60;3.00;;;;;;;19.14;26.86;99779.23;436257;1251;138131;-61
2023/04/21 10:11:08;;;;;;;3.70;2.30;;;;;;;18.66;27.50;99773.69;436167;1251;138166;-62
2023/04/21 10:21:20;;;;;;;2.80;2.60;;;;;;;17.91;28.55;99770.33;436212;1250;139171;-61
2023/04/21 10:31:31;;;;;;;3.60;3.20;;;;;;;17.64;29.05;99761.58;437018;1251;137929;-60
2023/04/21 10:41:37;;;;;;;5.90;2.40;;;;;;;17.47;29.87;99747.91;436736;1251;139493;-61
2023/04/21 10:52:06;;;;;;;3.10;2.20;;;;;;;17.34;29.43;99746.00;435942;1251;139631;-60
2023/04/21 11:02:14;;;;;;;2.50;2.30;;;;;;;17.01;29.09;99740.11;441109;1251;139677;-61
2023/04/21 11:12:22;;;;;;;3.30;2.50;;;;;;;16.77;28.72;99735.33;436153;1251;138287;-60
2023/04/21 11:22:28;;;;;;;8.40;2.50;;;;;;;16.57;29.27;99718.83;436172;1255;140385;-60
2023/04/21 11:32:34;;;;;;;5.00;2.10;;;;;;;16.74;29.48;99711.34;436195;1251;138672;-61
2023/04/21 11:42:42;;;;;;;2.70;2.20;;;;;;;16.67;29.48;99701.49;436330;1250;139638;-60
2023/04/21 11:52:52;;;;;;;2.60;2.00;;;;;;;16.71;29.17;99691.65;436123;1255;140241;-60
2023/04/21 12:02:58;;;;;;;2.50;1.70;;;;;;;16.59;29.34;99688.98;436585;1254;139183;-61
2023/04/21 12:13:04;;;;;;;3.90;3.00;;;;;;;16.68;29.47;99678.29;436478;1256;138521;-62
2023/04/21 12:23:10;;;;;;;2.70;2.50;;;;;;;16.71;29.95;99665.26;436794;1254;138544;-60
2023/04/21 12:33:16;;;;;;;1.80;1.70;;;;;;;16.89;29.84;99651.89;436932;1251;139005;-62
2023/04/21 12:43:22;;;;;;;2.50;2.30;;;;;;;16.86;29.55;99647.14;436922;1254;137929;-61
2023/04/21 12:53:28;;;;;;;4.30;2.30;;;;;;;16.90;29.51;99636.40;438670;1250;138725;-61
2023/04/21 13:03:34;;;;;;;;;;;;;;;16.89;29.18;99633.52;436807;1256;139124;-59
2023/04/21 13:13:41;;;;;;;1.60;1.50;;;;;;;16.93;29.18;99628.70;436573;1251;125664;-61
2023/04/21 13:23:47;;;;;;;4.30;2.30;;;;;;;17.09;29.36;99618.66;436777;1251;138434;-61
2023/04/21 13:33:53;;;;;;;3.30;2.90;;;;;;;17.00;29.04;99610.42;436656;1255;139505;-61
2023/04/21 13:43:59;;;;;;;3.40;2.70;;;;;;;16.89;29.09;99595.70;436532;1250;138761;-61
2023/04/21 13:54:05;;;;;;;2.00;1.80;;;;;;;16.96;28.96;99575.58;436941;1250;138110;-61
2023/04/21 14:04:10;;;;;;;2.20;1.80;;;;;;;17.09;28.82;99566.65;436556;1251;138733;-61
2023/04/21 14:14:17;;;;;;;2.90;1.90;;;;;;;17.01;28.81;99554.08;436553;1254;139636;-60
2023/04/21 14:24:42;;;;;;;2.00;1.70;;;;;;;16.78;28.71;99553.52;436449;1255;139227;-61
2023/04/21 14:34:52;;;;;;;2.40;2.20;;;;;;;16.75;29.01;99547.92;436132;1254;139081;-60
2023/04/21 14:44:57;;;;;;;2.20;2.00;;;;;;;16.78;29.02;99546.03;436238;1255;139023;-61
2023/04/21 14:55:04;;;;;;;3.30;1.80;;;;;;;16.83;29.43;99524.60;436694;1251;139130;-61
2023/04/21 15:05:11;;;;;;;2.80;1.90;;;;;;;16.87;29.54;99523.85;436534;1250;139054;-61
2023/04/21 15:15:16;;;;;;;4.40;2.10;;;;;;;16.76;29.35;99509.81;436076;1250;138482;-61
2023/04/21 15:25:22;;;;;;;3.00;2.00;;;;;;;16.71;29.39;99500.77;436177;1251;138106;-63
2023/04/21 15:35:28;;;;;;;5.00;2.30;;;;;;;16.65;29.34;99495.29;435920;1255;139669;-61
2023/04/21 15:45:34;;;;;;;3.70;1.90;;;;;;;16.65;29.64;99494.92;435900;1253;140215;-61
2023/04/21 15:55:40;;;;;;;4.40;2.30;;;;;;;16.61;29.74;99487.02;436325;1250;138852;-61
2023/04/21 16:05:46;;;;;;;2.90;2.60;;;;;;;16.51;29.89;99478.02;436289;1250;139631;-61
2023/04/21 16:15:52;;;;;;;2.60;2.10;;;;;;;16.52;30.46;99469.59;436549;1251;138564;-61
2023/04/21 16:25:58;;;;;;;2.70;2.30;;;;;;;16.45;31.09;99464.23;436350;1250;139440;-60
2023/04/21 16:36:04;;;;;;;5.90;3.40;;;;;;;16.27;31.34;99460.38;436409;1255;139584;-60
2023/04/21 16:46:10;;;;;;;4.20;2.70;;;;;;;16.03;31.88;99458.60;436687;1250;138767;-61
2023/04/21 16:56:16;;;;;;;3.40;2.10;;;;;;;15.82;32.24;99461.12;436105;1254;138586;-61
2023/04/21 17:06:21;;;;;;;5.40;2.00;;;;;;;15.59;32.54;99457.27;435708;1253;138328;-61
2023/04/21 17:16:28;;;;;;;4.70;2.20;;;;;;;15.29;32.84;99458.23;435735;1253;138650;-60
2023/04/21 17:26:34;;;;;;;4.40;2.00;;;;;;;15.01;33.44;99457.75;436233;1250;140560;-61
2023/04/21 17:36:40;;;;;;;4.40;2.50;;;;;;;14.68;34.15;99457.50;436464;1251;138045;-61
2023/04/21 17:46:46;;;;;;;4.10;3.00;;;;;;;14.32;34.68;99458.73;437039;1253;139026;-61
2023/04/21 17:56:52;;;;;;;12.00;4.70;;;;;;;13.95;35.24;99461.44;435888;1250;138664;-60
2023/04/21 18:06:58;;;;;;;10.90;6.70;;;;;;;13.68;35.90;99467.80;435850;1254;138357;-60
2023/04/21 18:17:04;;;;;;;13.40;8.00;;;;;;;13.43;36.60;99475.39;435865;1254;139084;-60
2023/04/21 18:27:10;;;;;;;19.80;12.10;;;;;;;13.13;37.30;99481.66;436095;1254;139344;-59
2023/04/21 18:37:16;;;;;;;46.20;30.80;;;;;;;12.89;37.95;99481.23;436612;1251;138469;-60
2023/04/21 18:47:23;;;;;;;11.60;7.40;;;;;;;12.65;38.73;99469.77;436474;1254;139625;-59
2023/04/21 18:57:29;;;;;;;10.20;9.10;;;;;;;12.48;39.52;99475.11;436835;1254;140052;-60
2023/04/21 19:07:35;;;;;;;13.40;9.80;;;;;;;12.29;40.15;99476.98;436623;1251;138859;-62
2023/04/21 19:17:41;;;;;;;22.20;13.10;;;;;;;12.12;40.91;99478.77;436896;1255;152544;-61
2023/04/21 19:27:47;;;;;;;20.90;12.50;;;;;;;11.97;41.43;99476.11;436935;1254;139345;-61
2023/04/21 19:37:53;;;;;;;55.90;28.40;;;;;;;11.79;42.15;99469.46;437118;1250;139117;-61
2023/04/21 19:47:58;;;;;;;19.90;13.20;;;;;;;11.59;42.59;99466.48;436711;1255;140074;-61
2023/04/21 19:58:04;;;;;;;15.80;8.80;;;;;;;11.36;42.97;99456.83;436848;1255;140606;-59
2023/04/21 20:08:10;;;;;;;39.40;14.80;;;;;;;11.27;43.56;99455.02;436914;1251;139965;-61
2023/04/21 20:18:16;;;;;;;28.20;14.30;;;;;;;11.04;44.02;99455.15;436596;1251;138696;-60
2023/04/21 20:28:22;;;;;;;25.70;14.30;;;;;;;10.76;44.78;99461.59;437387;1251;139836;-60
2023/04/21 20:38:27;;;;;;;18.80;11.10;;;;;;;10.41;45.81;99465.65;436709;1251;140111;-61
2023/04/21 20:48:33;;;;;;;15.40;9.70;;;;;;;10.02;46.54;99467.19;436820;1250;138852;-61
2023/04/21 20:58:39;;;;;;;56.80;32.30;;;;;;;9.96;46.95;99471.61;437072;1255;139063;-61
2023/04/21 21:08:45;;;;;;;37.80;21.90;;;;;;;9.66;48.58;99474.88;437073;1255;138771;-61
2023/04/21 21:18:51;;;;;;;16.30;9.00;;;;;;;9.50;48.73;99478.83;437275;1255;138435;-60
2023/04/21 21:28:57;;;;;;;16.80;6.70;;;;;;;9.43;49.56;99475.07;436741;1251;138995;-61
2023/04/21 21:39:05;;;;;;;13.80;7.90;;;;;;;9.18;49.80;99471.96;437099;1256;138063;-60
2023/04/21 21:49:13;;;;;;;7.50;6.10;;;;;;;9.19;49.40;99466.67;436478;1251;137914;-61
2023/04/21 21:59:19;;;;;;;10.90;6.50;;;;;;;9.51;48.60;99469.83;436215;1254;138355;-61
2023/04/21 22:09:25;;;;;;;6.40;4.60;;;;;;;9.69;48.06;99474.88;436723;1250;139104;-61
2023/04/21 22:19:32;;;;;;;10.50;6.90;;;;;;;9.68;48.22;99470.56;436716;1254;139689;-61
2023/04/21 22:29:38;;;;;;;14.60;8.80;;;;;;;9.31;50.60;99465.80;437640;1255;138910;-61
2023/04/21 22:39:45;;;;;;;18.40;7.00;;;;;;;8.71;53.27;99464.80;436972;1255;139386;-61
2023/04/21 22:49:52;;;;;;;14.20;8.40;;;;;;;8.13;55.21;99463.67;436220;1255;140524;-61
2023/04/21 22:59:57;;;;;;;9.00;7.20;;;;;;;7.58;56.17;99458.28;436974;1255;138012;-61
2023/04/21 23:10:04;;;;;;;9.40;6.60;;;;;;;7.17;57.05;99469.13;436727;1254;139545;-61
2023/04/21 23:20:12;;;;;;;13.60;8.20;;;;;;;6.81;58.44;99471.99;436839;1255;138455;-59
2023/04/21 23:30:16;;;;;;;;;;;;;;;6.52;59.47;99469.91;436811;1254;138936;-60
2023/04/21 23:40:22;;;;;;;16.20;11.00;;;;;;;6.26;60.40;99465.45;436596;1251;126369;-60
2023/04/21 23:50:28;;;;;;;16.60;10.60;;;;;;;6.08;61.06;99462.14;436912;1251;139457;-61
